Time;durP1;ratioP1;P1;durP2;ratioP2;P2;SDS_P1;SDS_P2;PMS_P1;PMS_P2;Temp;Humidity;BMP_temperature;BMP_pressure;BME280_temperature;BME280_humidity;BME280_pressure;Samples;Min_cycle;Max_cycle;Signal;HPM_P1;HPM_P2
2022/09/12 00:01:27;;;;;;;3.17;2.40;;;9.30;99.90;;;;;;4947221;28;20500;-82
2022/09/12 00:03:57;;;;;;;2.83;1.98;;;9.30;99.90;;;;;;4942167;29;20509;-82
2022/09/12 00:06:30;;;;;;;3.40;2.20;;;9.20;99.90;;;;;;4925389;29;20420;-82
2022/09/12 00:09:03;;;;;;;5.05;2.38;;;9.30;99.90;;;;;;4928335;29;20806;-82
2022/09/12 00:11:33;;;;;;;3.13;2.20;;;9.30;99.90;;;;;;4925118;29;20460;-83
2022/09/12 00:14:02;;;;;;;3.60;2.42;;;9.20;99.90;;;;;;4934822;29;20410;-82
2022/09/12 00:16:32;;;;;;;2.20;2.00;;;9.20;99.90;;;;;;4941036;29;20417;-82
2022/09/12 00:19:00;;;;;;;2.85;2.40;;;9.20;99.90;;;;;;4935939;29;20406;-82
2022/09/12 00:21:28;;;;;;;3.40;2.33;;;9.20;99.90;;;;;;4935055;29;20481;-82
2022/09/12 00:23:56;;;;;;;3.00;2.38;;;9.30;99.90;;;;;;4933469;29;20418;-82
2022/09/12 00:26:24;;;;;;;2.78;2.25;;;9.30;99.90;;;;;;4935909;29;20742;-82
2022/09/12 00:28:52;;;;;;;2.90;2.30;;;9.30;99.90;;;;;;4934548;29;20502;-82
2022/09/12 00:31:25;;;;;;;2.78;2.33;;;9.20;99.90;;;;;;4944884;29;20501;-82
2022/09/12 00:33:57;;;;;;;2.67;2.10;;;9.20;99.90;;;;;;4932689;29;20421;-82
2022/09/12 00:36:26;;;;;;;2.53;2.08;;;9.30;99.90;;;;;;4924503;29;20424;-81
2022/09/12 00:38:54;;;;;;;3.35;2.20;;;9.20;99.90;;;;;;4935521;29;20406;-81
2022/09/12 00:41:22;;;;;;;3.55;2.10;;;9.20;99.90;;;;;;4938080;29;20485;-82
2022/09/12 00:44:19;;;;;;;3.30;2.40;;;9.20;99.90;;;;;;4929043;29;20410;-82
2022/09/12 00:46:57;;;;;;;3.97;2.40;;;9.20;99.90;;;;;;4928662;29;20445;-82
2022/09/12 00:49:45;;;;;;;3.08;1.92;;;9.30;99.90;;;;;;4932792;29;20512;-82
2022/09/12 00:52:35;;;;;;;3.28;2.10;;;9.20;99.90;;;;;;4929201;29;20944;-81
2022/09/12 00:55:12;;;;;;;3.22;2.03;;;9.20;99.90;;;;;;4927074;29;20417;-81
2022/09/12 00:57:55;;;;;;;3.63;2.30;;;9.10;99.90;;;;;;4928155;29;20420;-81
2022/09/12 01:00:25;;;;;;;2.97;2.20;;;9.10;99.90;;;;;;4935315;29;20456;-82
2022/09/12 01:02:59;;;;;;;2.75;2.22;;;9.00;99.90;;;;;;4923591;29;20744;-81
2022/09/12 01:05:30;;;;;;;2.47;2.10;;;9.20;99.90;;;;;;4940302;29;20414;-82
2022/09/12 01:08:01;;;;;;;2.75;1.60;;;9.10;99.90;;;;;;4914067;29;20415;-82
2022/09/12 01:10:29;;;;;;;2.70;2.00;;;9.20;99.90;;;;;;4932084;29;20492;-81
2022/09/12 01:12:58;;;;;;;2.47;1.70;;;9.20;99.90;;;;;;4935099;29;20409;-82
2022/09/12 01:15:29;;;;;;;1.90;1.48;;;9.20;99.90;;;;;;4946298;29;20426;-82
2022/09/12 01:18:10;;;;;;;3.13;1.63;;;9.20;99.90;;;;;;4924897;29;20497;-82
2022/09/12 01:21:15;;;;;;;1.98;1.67;;;9.20;99.90;;;;;;4926794;29;20394;-82
2022/09/12 01:23:48;;;;;;;2.55;1.90;;;9.10;99.90;;;;;;4934376;29;20453;-81
2022/09/12 01:26:34;;;;;;;2.75;1.90;;;9.10;99.90;;;;;;4934469;29;20418;-82
2022/09/12 01:29:47;;;;;;;2.45;2.10;;;9.20;99.90;;;;;;4919529;29;20408;-82
2022/09/12 01:32:38;;;;;;;3.13;1.80;;;9.20;99.90;;;;;;4928903;29;20906;-81
2022/09/12 01:35:31;;;;;;;1.88;1.42;;;9.20;99.90;;;;;;4917603;29;20836;-82
2022/09/12 01:38:24;;;;;;;2.13;1.63;;;9.20;99.90;;;;;;4928405;29;20391;-82
2022/09/12 01:41:16;;;;;;;3.00;1.52;;;9.20;99.90;;;;;;4934321;29;20398;-82
2022/09/12 01:43:50;;;;;;;2.25;1.73;;;9.10;99.90;;;;;;4933132;29;20426;-81
2022/09/12 01:46:26;;;;;;;2.53;1.60;;;9.20;99.90;;;;;;4934970;29;20402;-82
2022/09/12 01:49:08;;;;;;;2.42;1.45;;;9.10;99.90;;;;;;4923051;29;20398;-82
2022/09/12 01:52:00;;;;;;;2.20;1.48;;;9.10;99.90;;;;;;4925293;29;20811;-82
2022/09/12 01:55:15;;;;;;;2.55;1.40;;;9.10;99.90;;;;;;4926122;29;20445;-83
2022/09/12 01:58:06;;;;;;;1.67;1.50;;;9.20;99.90;;;;;;4904373;29;20987;-81
2022/09/12 02:00:42;;;;;;;1.80;1.40;;;9.10;99.90;;;;;;4930219;29;20447;-82
2022/09/12 02:03:16;;;;;;;2.67;1.70;;;9.00;99.90;;;;;;4931148;29;20419;-82
2022/09/12 02:05:58;;;;;;;2.47;1.50;;;9.00;99.90;;;;;;4923658;29;20465;-82
2022/09/12 02:08:37;;;;;;;3.33;1.80;;;9.10;99.90;;;;;;4924257;29;20409;-82
2022/09/12 02:11:11;;;;;;;1.75;1.50;;;9.10;99.90;;;;;;4930106;29;20465;-83
2022/09/12 02:14:00;;;;;;;2.50;1.63;;;9.10;99.90;;;;;;4934313;29;20893;-83
2022/09/12 02:16:39;;;;;;;2.10;1.77;;;9.00;99.90;;;;;;4929481;29;20779;-83
2022/09/12 02:19:20;;;;;;;3.38;1.80;;;9.10;99.90;;;;;;4930255;29;20449;-83
2022/09/12 02:24:42;;;;;;;2.20;1.73;;;9.20;99.90;;;;;;4960296;28;20421;-85
2022/09/12 02:27:22;;;;;;;2.97;1.60;;;9.00;99.90;;;;;;4965209;28;20461;-85
2022/09/12 02:29:50;;;;;;;2.20;1.67;;;9.10;99.90;;;;;;4974287;28;20411;-86
2022/09/12 02:32:26;;;;;;;2.23;1.70;;;9.20;99.90;;;;;;4963804;28;20451;-85
2022/09/12 02:35:06;;;;;;;3.03;1.40;;;9.10;99.90;;;;;;4971225;28;20506;-86
2022/09/12 02:37:48;;;;;;;2.22;1.70;;;9.10;99.90;;;;;;4962736;28;20464;-86
2022/09/12 02:40:17;;;;;;;2.13;1.40;;;9.10;99.90;;;;;;4962086;28;20403;-86
2022/09/12 02:42:45;;;;;;;2.38;1.42;;;9.20;99.90;;;;;;4959543;28;20400;-85
2022/09/12 02:45:13;;;;;;;2.08;1.40;;;9.10;99.90;;;;;;4956058;28;20411;-85
2022/09/12 02:47:48;;;;;;;2.23;1.50;;;9.10;99.90;;;;;;4964516;28;20502;-85
2022/09/12 02:50:16;;;;;;;2.00;1.40;;;9.10;99.90;;;;;;4968278;28;20913;-85
2022/09/12 02:52:45;;;;;;;2.45;1.40;;;9.10;99.90;;;;;;4957605;28;20763;-85
2022/09/12 02:55:13;;;;;;;2.40;1.50;;;9.10;99.90;;;;;;4970037;28;20469;-86
2022/09/12 02:57:41;;;;;;;2.05;1.50;;;9.10;99.90;;;;;;4965537;28;20406;-85
2022/09/12 03:00:09;;;;;;;3.67;1.30;;;9.10;99.90;;;;;;4961778;28;20402;-85
2022/09/12 03:02:55;;;;;;;1.88;1.20;;;9.10;99.90;;;;;;4963802;28;20407;-85
2022/09/12 03:05:39;;;;;;;1.90;1.33;;;9.10;99.90;;;;;;4970855;28;20411;-86
2022/09/12 03:08:14;;;;;;;1.85;1.20;;;9.10;99.90;;;;;;4971433;28;20497;-85
2022/09/12 03:11:17;;;;;;;1.63;1.20;;;9.10;99.90;;;;;;4969706;28;20439;-86
2022/09/12 03:14:15;;;;;;;2.42;1.20;;;9.00;99.90;;;;;;4961062;28;20427;-86
2022/09/12 03:17:07;;;;;;;2.00;1.20;;;9.10;99.90;;;;;;4975233;28;20906;-84
2022/09/12 03:19:54;;;;;;;2.60;1.30;;;9.20;99.90;;;;;;4977300;28;20467;-86
2022/09/12 03:22:58;;;;;;;2.20;1.20;;;9.20;99.90;;;;;;4964261;28;20411;-85
2022/09/12 03:25:39;;;;;;;2.00;1.10;;;9.10;99.90;;;;;;4960849;28;20415;-86
2022/09/12 03:28:16;;;;;;;1.75;1.25;;;9.20;99.90;;;;;;4960997;28;20533;-85
2022/09/12 03:30:47;;;;;;;2.08;1.23;;;9.20;99.90;;;;;;4969135;28;20811;-86
2022/09/12 03:33:17;;;;;;;1.63;1.15;;;9.10;99.90;;;;;;4966908;28;20406;-85
2022/09/12 03:35:46;;;;;;;2.05;1.23;;;9.10;99.90;;;;;;4967665;28;20507;-86
2022/09/12 03:38:15;;;;;;;2.00;1.40;;;9.20;99.90;;;;;;4963999;28;20411;-85
2022/09/12 03:40:42;;;;;;;1.50;1.20;;;9.20;99.90;;;;;;4969475;28;20412;-84
2022/09/12 03:43:10;;;;;;;1.65;1.10;;;9.10;99.90;;;;;;4960567;28;20891;-86
2022/09/12 03:45:38;;;;;;;1.55;1.15;;;9.00;99.90;;;;;;4970068;28;20469;-85
2022/09/12 03:48:06;;;;;;;1.85;1.20;;;9.00;99.90;;;;;;4954016;28;20403;-86
2022/09/12 03:50:34;;;;;;;1.15;0.90;;;9.00;99.90;;;;;;4965338;28;20429;-85
2022/09/12 03:53:02;;;;;;;3.60;1.15;;;8.90;99.90;;;;;;4973558;28;20497;-86
2022/09/12 03:55:29;;;;;;;1.20;1.05;;;9.00;99.90;;;;;;4971152;28;20408;-85
2022/09/12 03:57:57;;;;;;;1.50;0.90;;;9.00;99.90;;;;;;4962939;28;20416;-85
2022/09/12 04:00:24;;;;;;;1.85;1.08;;;9.00;99.90;;;;;;4957670;28;20410;-85
2022/09/12 04:02:54;;;;;;;2.10;1.10;;;9.10;99.90;;;;;;4965265;28;20446;-84
2022/09/12 04:05:24;;;;;;;1.25;0.90;;;9.10;99.90;;;;;;4973541;28;20983;-85
2022/09/12 04:07:51;;;;;;;1.60;0.90;;;9.20;99.90;;;;;;4972217;28;20861;-85
2022/09/12 04:10:19;;;;;;;1.95;0.90;;;9.00;99.90;;;;;;4965091;28;20404;-85
2022/09/12 04:12:46;;;;;;;1.10;0.80;;;9.10;99.90;;;;;;4970476;28;20439;-84
2022/09/12 04:15:14;;;;;;;1.17;0.90;;;9.10;99.90;;;;;;4972366;28;20426;-84
2022/09/12 04:17:42;;;;;;;1.15;0.75;;;9.00;99.90;;;;;;4972418;28;20408;-85
2022/09/12 04:20:09;;;;;;;1.23;0.90;;;9.00;99.90;;;;;;4970714;28;20400;-85
2022/09/12 04:22:37;;;;;;;1.65;1.08;;;9.00;99.90;;;;;;4960691;28;20806;-85
2022/09/12 04:25:06;;;;;;;1.48;1.00;;;9.00;99.90;;;;;;4970328;28;20467;-85
2022/09/12 04:27:34;;;;;;;2.35;1.40;;;9.00;99.90;;;;;;4945709;28;20409;-85
2022/09/12 04:30:01;;;;;;;1.10;0.80;;;9.10;99.90;;;;;;4972413;28;20416;-85
2022/09/12 04:32:30;;;;;;;1.27;0.95;;;9.00;99.90;;;;;;4971434;28;20517;-85
2022/09/12 04:34:57;;;;;;;2.65;0.80;;;9.00;99.90;;;;;;4969148;28;20497;-86
2022/09/12 04:37:25;;;;;;;2.20;0.80;;;9.00;99.90;;;;;;4973492;28;20411;-86
2022/09/12 04:39:56;;;;;;;1.05;0.80;;;9.00;99.90;;;;;;4969759;28;20467;-85
2022/09/12 04:42:24;;;;;;;1.30;0.80;;;9.10;99.90;;;;;;4971998;28;20431;-84
2022/09/12 04:44:51;;;;;;;2.20;1.50;;;9.10;99.90;;;;;;4973021;28;20422;-85
2022/09/12 04:47:19;;;;;;;1.40;0.90;;;9.10;99.90;;;;;;4967291;28;20434;-84
2022/09/12 04:49:49;;;;;;;2.30;1.37;;;9.20;99.90;;;;;;4964785;28;20409;-84
2022/09/12 04:52:17;;;;;;;2.45;1.20;;;9.10;99.90;;;;;;4972509;28;20426;-84
2022/09/12 04:54:44;;;;;;;0.98;0.70;;;9.10;99.90;;;;;;4969840;28;20415;-85
2022/09/12 04:57:12;;;;;;;1.92;1.02;;;9.10;99.90;;;;;;4956842;28;20487;-85
2022/09/12 04:59:40;;;;;;;3.53;0.70;;;9.10;99.90;;;;;;4961005;28;20463;-85
2022/09/12 05:02:07;;;;;;;1.40;0.80;;;9.00;99.90;;;;;;4962785;28;20879;-85
2022/09/12 05:04:35;;;;;;;1.03;0.80;;;9.00;99.90;;;;;;4961017;28;20425;-85
2022/09/12 05:07:03;;;;;;;0.77;0.70;;;9.00;99.90;;;;;;4962079;28;20396;-85
2022/09/12 05:09:30;;;;;;;3.00;1.48;;;9.10;99.90;;;;;;4972627;28;20885;-85
2022/09/12 05:11:58;;;;;;;2.97;1.30;;;9.00;99.90;;;;;;4964632;28;20431;-85
2022/09/12 05:14:31;;;;;;;0.80;0.60;;;9.10;99.90;;;;;;4961828;28;20426;-88
2022/09/12 05:17:00;;;;;;;3.30;1.00;;;9.10;99.90;;;;;;4968178;28;20512;-86
2022/09/12 05:19:29;;;;;;;1.80;0.88;;;9.10;99.90;;;;;;4963772;28;20404;-85
2022/09/12 05:21:58;;;;;;;1.90;0.80;;;9.10;99.90;;;;;;4971140;28;20396;-85
2022/09/12 05:24:25;;;;;;;1.45;0.90;;;9.00;99.90;;;;;;4964413;28;20447;-85
2022/09/12 05:26:53;;;;;;;1.67;0.90;;;9.00;99.90;;;;;;4972257;28;20406;-86
2022/09/12 05:29:20;;;;;;;1.03;0.67;;;9.10;99.90;;;;;;4964278;28;20459;-85
2022/09/12 05:31:50;;;;;;;1.13;0.75;;;9.10;99.90;;;;;;4970302;28;20490;-85
2022/09/12 05:34:19;;;;;;;1.48;0.70;;;9.00;99.90;;;;;;4971858;28;20418;-86
2022/09/12 05:36:47;;;;;;;1.10;0.80;;;9.10;99.90;;;;;;4970124;28;20463;-85
2022/09/12 05:39:17;;;;;;;0.90;0.70;;;9.10;99.90;;;;;;4969043;28;20408;-85
2022/09/12 05:41:47;;;;;;;0.90;0.70;;;9.10;99.90;;;;;;4964062;28;20501;-86
2022/09/12 05:44:14;;;;;;;1.10;0.80;;;9.10;99.90;;;;;;4971184;28;20487;-84
2022/09/12 05:46:44;;;;;;;0.85;0.60;;;9.20;99.90;;;;;;4969698;28;20411;-85
2022/09/12 05:49:13;;;;;;;1.00;0.55;;;9.20;99.90;;;;;;4966805;28;20453;-85
2022/09/12 05:51:44;;;;;;;1.50;0.70;;;9.20;99.90;;;;;;4967394;28;20891;-85
2022/09/12 05:54:14;;;;;;;1.10;0.60;;;9.10;99.90;;;;;;4963785;28;20412;-85
2022/09/12 05:56:43;;;;;;;0.85;0.70;;;9.10;99.90;;;;;;4961916;28;20456;-85
2022/09/12 05:59:13;;;;;;;1.33;0.60;;;9.10;99.90;;;;;;4970979;28;20421;-86
2022/09/12 06:01:42;;;;;;;1.30;0.60;;;9.00;99.90;;;;;;4962957;28;20389;-88
2022/09/12 06:04:10;;;;;;;1.98;0.80;;;9.10;99.90;;;;;;4964139;28;20398;-87
2022/09/12 06:06:43;;;;;;;1.05;0.60;;;9.00;99.90;;;;;;4971931;28;20445;-86
2022/09/12 06:09:14;;;;;;;1.60;0.70;;;9.00;99.90;;;;;;4963246;28;20456;-87
2022/09/12 06:11:43;;;;;;;0.80;0.60;;;9.10;99.90;;;;;;4974037;28;20408;-86
2022/09/12 06:14:12;;;;;;;0.70;0.60;;;9.10;99.90;;;;;;4966047;28;20420;-87
2022/09/12 06:16:40;;;;;;;0.90;0.80;;;9.10;99.90;;;;;;4957323;28;20427;-86
2022/09/12 06:19:14;;;;;;;1.00;0.68;;;9.10;99.90;;;;;;4962018;28;20416;-86
2022/09/12 06:21:41;;;;;;;0.63;0.60;;;9.00;99.90;;;;;;4969635;28;20443;-86
2022/09/12 06:24:09;;;;;;;0.60;0.50;;;9.00;99.90;;;;;;4968510;28;20837;-85
2022/09/12 06:26:37;;;;;;;1.02;0.68;;;9.00;99.90;;;;;;4965014;28;20433;-87
2022/09/12 06:29:04;;;;;;;1.00;0.63;;;9.10;99.90;;;;;;4970542;28;20402;-87
2022/09/12 06:31:35;;;;;;;0.73;0.60;;;9.00;99.90;;;;;;4971641;28;20410;-85
2022/09/12 06:34:05;;;;;;;1.42;0.80;;;9.00;99.90;;;;;;4968488;28;20406;-86
2022/09/12 06:36:37;;;;;;;1.45;0.60;;;9.10;99.90;;;;;;4962399;28;20417;-86
2022/09/12 06:39:09;;;;;;;0.70;0.60;;;9.20;99.90;;;;;;4971668;28;20406;-88
2022/09/12 06:41:37;;;;;;;0.90;0.70;;;9.10;99.90;;;;;;4971762;28;20502;-86
2022/09/12 06:44:18;;;;;;;0.70;0.60;;;9.10;99.90;;;;;;4970625;28;20405;-86
2022/09/12 06:46:47;;;;;;;1.75;0.70;;;9.10;99.90;;;;;;4963875;28;20416;-86
2022/09/12 06:49:16;;;;;;;0.82;0.60;;;9.20;99.90;;;;;;4968692;28;20412;-85
2022/09/12 06:51:44;;;;;;;0.98;0.60;;;9.10;99.90;;;;;;4968688;28;20503;-86
2022/09/12 06:54:13;;;;;;;0.60;0.40;;;9.10;99.90;;;;;;4964749;28;20438;-87
2022/09/12 06:56:40;;;;;;;0.70;0.50;;;9.10;99.90;;;;;;4969025;28;20963;-87
2022/09/12 06:59:08;;;;;;;0.60;0.60;;;9.10;99.90;;;;;;4963620;28;20932;-86
2022/09/12 07:01:36;;;;;;;0.77;0.60;;;9.20;99.90;;;;;;4968347;28;20400;-87
2022/09/12 07:04:04;;;;;;;0.88;0.60;;;9.20;99.90;;;;;;4962553;28;20975;-86
2022/09/12 07:06:37;;;;;;;1.02;0.63;;;9.20;99.90;;;;;;4971321;28;20840;-87
2022/09/12 07:09:07;;;;;;;0.80;0.60;;;9.20;99.90;;;;;;4971396;28;20414;-86
2022/09/12 07:11:36;;;;;;;2.10;0.60;;;9.20;99.90;;;;;;4961543;28;20410;-87
2022/09/12 07:14:06;;;;;;;1.38;0.50;;;9.30;99.90;;;;;;4953980;28;20544;-86
2022/09/12 07:16:36;;;;;;;0.63;0.43;;;9.20;99.90;;;;;;4967841;28;20416;-87
2022/09/12 07:19:06;;;;;;;0.80;0.50;;;9.20;99.90;;;;;;4965151;28;20387;-86
2022/09/12 07:21:38;;;;;;;1.00;0.50;;;9.20;99.90;;;;;;4963146;28;20409;-86
2022/09/12 07:24:08;;;;;;;1.20;0.40;;;9.30;99.90;;;;;;4964461;28;20423;-86
2022/09/12 07:26:37;;;;;;;1.30;0.40;;;9.30;99.90;;;;;;4971658;28;20484;-86
2022/09/12 07:29:04;;;;;;;0.90;0.50;;;9.30;99.90;;;;;;4968101;28;20412;-87
2022/09/12 07:31:53;;;;;;;0.50;0.50;;;9.30;99.90;;;;;;4970238;28;20406;-84
2022/09/12 07:34:20;;;;;;;0.60;0.40;;;9.30;99.90;;;;;;4970581;28;20502;-86
2022/09/12 07:36:48;;;;;;;1.10;0.50;;;9.30;99.90;;;;;;4973466;28;20488;-86
2022/09/12 07:39:17;;;;;;;0.90;0.40;;;9.30;99.90;;;;;;4965265;28;20415;-86
2022/09/12 07:41:47;;;;;;;1.50;0.40;;;9.20;99.90;;;;;;4974450;28;20438;-87
2022/09/12 07:44:15;;;;;;;0.80;0.50;;;9.20;99.90;;;;;;4973957;28;20868;-84
2022/09/12 07:46:42;;;;;;;0.55;0.55;;;9.20;99.90;;;;;;4972904;28;20455;-86
2022/09/12 07:49:11;;;;;;;0.70;0.50;;;9.20;99.90;;;;;;4971051;28;20443;-86
2022/09/12 07:51:39;;;;;;;0.90;0.50;;;9.20;99.90;;;;;;4962908;28;20392;-86
2022/09/12 07:54:08;;;;;;;0.70;0.50;;;9.20;99.90;;;;;;4965793;28;20406;-86
2022/09/12 07:56:35;;;;;;;0.60;0.50;;;9.30;99.90;;;;;;4973384;28;20425;-86
2022/09/12 07:59:08;;;;;;;0.70;0.50;;;9.20;99.90;;;;;;4965212;28;20419;-85
2022/09/12 08:01:36;;;;;;;0.73;0.50;;;9.30;99.90;;;;;;4962276;28;20396;-86
2022/09/12 08:04:04;;;;;;;4.25;0.65;;;9.30;99.90;;;;;;4966919;28;20402;-87
2022/09/12 08:06:34;;;;;;;0.98;0.60;;;9.40;99.90;;;;;;4973716;28;20502;-86
2022/09/12 08:09:03;;;;;;;0.50;0.50;;;9.40;99.90;;;;;;4974214;28;20406;-87
2022/09/12 08:11:31;;;;;;;0.50;0.50;;;9.30;99.90;;;;;;4973595;28;20411;-86
2022/09/12 08:14:00;;;;;;;1.20;0.50;;;9.40;99.90;;;;;;4965195;28;20495;-86
2022/09/12 08:16:30;;;;;;;0.70;0.60;;;9.40;99.90;;;;;;4965008;28;20507;-85
2022/09/12 08:18:59;;;;;;;0.73;0.60;;;9.40;99.90;;;;;;4971755;28;20431;-86
2022/09/12 08:21:29;;;;;;;1.20;0.60;;;9.30;99.90;;;;;;4964520;28;20400;-86
2022/09/12 08:24:02;;;;;;;0.70;0.50;;;9.40;99.90;;;;;;4963133;28;20449;-86
2022/09/12 08:26:31;;;;;;;1.00;0.70;;;9.40;99.90;;;;;;4973697;28;20414;-86
2022/09/12 08:28:59;;;;;;;1.20;0.60;;;9.40;99.90;;;;;;4964107;28;20415;-86
2022/09/12 08:31:27;;;;;;;1.90;0.40;;;9.40;99.90;;;;;;4971724;28;20421;-86
2022/09/12 08:33:56;;;;;;;0.70;0.40;;;9.40;99.90;;;;;;4963842;28;20410;-86
2022/09/12 08:36:26;;;;;;;2.33;0.57;;;9.40;99.90;;;;;;4967564;28;20440;-86
2022/09/12 08:38:56;;;;;;;0.57;0.57;;;9.40;99.90;;;;;;4963850;28;20418;-86
2022/09/12 08:41:29;;;;;;;0.50;0.50;;;9.50;99.90;;;;;;4972329;28;20477;-86
2022/09/12 08:44:15;;;;;;;0.65;0.60;;;9.50;99.90;;;;;;4970917;28;20424;-85
2022/09/12 08:47:11;;;;;;;0.80;0.52;;;9.50;99.90;;;;;;4973706;28;20477;-87
2022/09/12 08:50:07;;;;;;;0.57;0.40;;;9.50;99.90;;;;;;4966230;28;20407;-85
2022/09/12 08:53:09;;;;;;;0.70;0.50;;;9.50;99.90;;;;;;4964381;28;20487;-86
2022/09/12 08:55:43;;;;;;;0.52;0.50;;;9.50;99.90;;;;;;4966490;28;20411;-85
2022/09/12 08:58:15;;;;;;;1.45;0.52;;;9.60;99.90;;;;;;4965490;28;20939;-87
2022/09/12 09:01:03;;;;;;;0.70;0.50;;;9.60;99.90;;;;;;4969062;28;20928;-87
2022/09/12 09:03:51;;;;;;;1.25;0.50;;;9.60;99.90;;;;;;4960711;28;20414;-85
2022/09/12 09:06:44;;;;;;;0.40;0.40;;;9.60;99.90;;;;;;4951118;28;20966;-86
2022/09/12 09:09:43;;;;;;;7.28;0.65;;;9.60;99.90;;;;;;4962109;28;20412;-87
2022/09/12 09:12:26;;;;;;;0.80;0.50;;;9.60;99.90;;;;;;4962853;28;20404;-88
2022/09/12 09:15:08;;;;;;;1.00;0.50;;;9.70;99.90;;;;;;4963914;28;20412;-86
2022/09/12 09:17:46;;;;;;;0.52;0.40;;;9.70;99.90;;;;;;4964238;28;20412;-86
2022/09/12 09:20:40;;;;;;;0.60;0.40;;;9.70;99.90;;;;;;4972825;28;20510;-88
2022/09/12 09:23:34;;;;;;;0.68;0.50;;;9.60;99.90;;;;;;4959215;28;20494;-87
2022/09/12 09:26:14;;;;;;;0.50;0.50;;;9.70;99.90;;;;;;4961242;28;20519;-87
2022/09/12 09:28:45;;;;;;;0.60;0.50;;;9.60;99.90;;;;;;4961120;28;20645;-88
2022/09/12 09:31:20;;;;;;;2.63;0.50;;;9.60;99.90;;;;;;4988122;28;20411;-87
2022/09/12 09:33:54;;;;;;;1.33;0.50;;;9.60;99.90;;;;;;4980844;28;20995;-84
2022/09/12 09:37:00;;;;;;;0.65;0.40;;;9.60;99.90;;;;;;4974836;28;20967;-86
2022/09/12 09:39:46;;;;;;;0.70;0.40;;;9.60;99.90;;;;;;4955810;28;20528;-88
2022/09/12 09:42:26;;;;;;;0.68;0.50;;;9.60;99.90;;;;;;4964039;28;20502;-86
2022/09/12 09:45:02;;;;;;;1.10;0.50;;;9.50;99.90;;;;;;4969078;28;20394;-87
2022/09/12 09:47:31;;;;;;;0.55;0.50;;;9.60;99.90;;;;;;4957115;28;20416;-87
2022/09/12 09:49:59;;;;;;;1.00;0.53;;;9.60;99.90;;;;;;4965501;28;20891;-87
2022/09/12 09:52:29;;;;;;;1.27;0.40;;;9.60;99.90;;;;;;4971677;28;20417;-85
2022/09/12 09:55:00;;;;;;;0.70;0.60;;;9.60;99.90;;;;;;4976285;28;20499;-87
2022/09/12 09:57:34;;;;;;;0.90;0.50;;;9.50;99.90;;;;;;4966864;28;20420;-87
2022/09/12 10:00:26;;;;;;;0.80;0.50;;;9.60;99.90;;;;;;4967358;28;20410;-88
2022/09/12 10:03:09;;;;;;;1.90;0.60;;;9.60;99.90;;;;;;4968548;28;20406;-87
2022/09/12 10:06:04;;;;;;;0.80;0.50;;;9.60;99.90;;;;;;4960750;28;20402;-86
2022/09/12 10:08:35;;;;;;;0.73;0.30;;;9.60;99.90;;;;;;4966897;28;20388;-86
2022/09/12 10:11:18;;;;;;;1.00;0.40;;;9.70;99.90;;;;;;4962757;28;20390;-87
2022/09/12 10:13:55;;;;;;;1.50;0.50;;;9.70;99.90;;;;;;4962934;28;20397;-87
2022/09/12 10:16:26;;;;;;;1.00;0.32;;;9.70;99.90;;;;;;4969062;28;20495;-87
2022/09/12 10:18:56;;;;;;;1.10;0.70;;;9.70;99.90;;;;;;4965027;28;20985;-88
2022/09/12 10:21:42;;;;;;;1.10;0.40;;;9.70;99.90;;;;;;4969701;28;20412;-86
2022/09/12 10:24:21;;;;;;;0.50;0.40;;;9.70;99.90;;;;;;4968010;28;20448;-87
2022/09/12 10:27:04;;;;;;;1.10;0.40;;;9.70;99.90;;;;;;4959727;28;20440;-88
2022/09/12 10:29:38;;;;;;;0.55;0.40;;;9.70;99.90;;;;;;4961393;28;20774;-87
2022/09/12 10:32:07;;;;;;;0.50;0.50;;;9.60;99.90;;;;;;4966682;28;20942;-87
2022/09/12 10:34:40;;;;;;;1.10;0.40;;;9.70;99.90;;;;;;4959464;28;20470;-86
2022/09/12 10:37:16;;;;;;;0.50;0.40;;;9.60;99.90;;;;;;4956834;28;20511;-87
2022/09/12 10:39:53;;;;;;;0.50;0.40;;;9.70;99.90;;;;;;4965191;28;20412;-87
2022/09/12 10:42:45;;;;;;;0.40;0.40;;;9.70;99.90;;;;;;4970719;28;20404;-89
2022/09/12 10:45:29;;;;;;;0.65;0.40;;;9.70;99.90;;;;;;4979625;28;20473;-88
2022/09/12 10:47:59;;;;;;;0.90;0.40;;;9.70;99.90;;;;;;4956660;28;20399;-88
2022/09/12 10:50:40;;;;;;;1.13;0.40;;;9.70;99.90;;;;;;4963697;28;20410;-87
2022/09/12 10:53:39;;;;;;;0.77;0.40;;;9.80;99.90;;;;;;4968590;28;20412;-87
2022/09/12 10:56:12;;;;;;;0.50;0.40;;;9.80;99.90;;;;;;4964316;28;20950;-88
2022/09/12 10:59:01;;;;;;;0.50;0.40;;;9.70;99.90;;;;;;4962274;28;20395;-88
2022/09/12 11:01:34;;;;;;;1.83;0.40;;;9.80;99.90;;;;;;4945911;28;20400;-88
2022/09/12 11:04:37;;;;;;;0.73;0.50;;;9.80;99.90;;;;;;4969167;28;20463;-86
2022/09/12 11:07:16;;;;;;;0.30;0.30;;;9.80;99.90;;;;;;4979395;28;20453;-88
2022/09/12 11:09:55;;;;;;;0.40;0.40;;;9.80;99.90;;;;;;4969663;28;20428;-87
2022/09/12 11:12:31;;;;;;;1.52;0.50;;;9.80;99.90;;;;;;4966589;28;20901;-85
2022/09/12 11:15:21;;;;;;;1.20;0.40;;;9.80;99.90;;;;;;4970599;28;20408;-88
2022/09/12 11:18:08;;;;;;;0.77;0.50;;;9.80;99.90;;;;;;4965868;28;20436;-88
2022/09/12 11:20:58;;;;;;;1.10;0.50;;;9.80;99.90;;;;;;4974712;28;20423;-87
2022/09/12 11:23:44;;;;;;;0.80;0.70;;;9.80;99.90;;;;;;4972589;28;20895;-87
2022/09/12 11:26:54;;;;;;;0.60;0.60;;;9.70;99.90;;;;;;4962592;28;21231;-87
2022/09/12 11:30:00;;;;;;;1.50;0.50;;;9.80;99.90;;;;;;4937620;28;20430;-86
2022/09/12 11:33:00;;;;;;;0.98;0.50;;;9.80;99.90;;;;;;4914859;29;20425;-87
2022/09/12 11:35:29;;;;;;;1.30;0.52;;;9.80;99.90;;;;;;4916403;29;20513;-86
2022/09/12 11:38:08;;;;;;;0.40;0.40;;;9.70;99.90;;;;;;4951238;28;20422;-87
2022/09/12 11:40:44;;;;;;;0.60;0.40;;;9.70;99.90;;;;;;4973251;28;20446;-86
2022/09/12 11:43:33;;;;;;;1.20;0.40;;;9.80;99.90;;;;;;4964053;28;20408;-87
2022/09/12 11:46:26;;;;;;;0.50;0.40;;;9.80;99.90;;;;;;4970183;28;20932;-87
2022/09/12 11:49:05;;;;;;;0.73;0.40;;;9.80;99.90;;;;;;4964222;28;20450;-86
2022/09/12 11:51:58;;;;;;;0.82;0.50;;;9.80;99.90;;;;;;4974264;28;20396;-87
2022/09/12 11:54:46;;;;;;;1.88;0.43;;;9.80;99.90;;;;;;4957203;28;20420;-86
2022/09/12 11:57:29;;;;;;;0.50;0.50;;;9.80;99.90;;;;;;4969992;28;20425;-88
2022/09/12 12:00:18;;;;;;;0.60;0.40;;;9.80;99.90;;;;;;4973325;28;20409;-87
2022/09/12 12:03:12;;;;;;;1.60;0.40;;;9.70;99.90;;;;;;4984501;28;20389;-87
2022/09/12 12:06:03;;;;;;;0.88;0.40;;;9.80;99.90;;;;;;4982076;28;20393;-87
2022/09/12 12:08:43;;;;;;;1.67;0.40;;;9.80;99.90;;;;;;4965801;28;20567;-87
2022/09/12 12:11:32;;;;;;;1.25;0.43;;;9.80;99.90;;;;;;4966148;28;20399;-87
2022/09/12 12:14:04;;;;;;;1.20;0.40;;;9.90;99.90;;;;;;4947577;28;20894;-88
2022/09/12 12:16:40;;;;;;;1.60;0.43;;;9.90;99.90;;;;;;4975019;28;21001;-87
2022/09/12 12:19:14;;;;;;;1.70;0.40;;;9.90;99.90;;;;;;4960335;28;20391;-87
2022/09/12 12:21:51;;;;;;;1.57;0.50;;;9.90;99.90;;;;;;4968718;28;20738;-87
2022/09/12 12:24:22;;;;;;;1.93;0.50;;;9.90;99.90;;;;;;4981662;28;20412;-85
2022/09/12 12:27:02;;;;;;;0.75;0.43;;;10.00;99.90;;;;;;4968418;28;20467;-87
2022/09/12 12:29:31;;;;;;;0.55;0.30;;;9.90;99.90;;;;;;4967351;28;20937;-87
2022/09/12 12:32:02;;;;;;;0.67;0.40;;;9.90;99.90;;;;;;4970699;28;20894;-86
2022/09/12 12:34:32;;;;;;;0.68;0.40;;;10.00;99.90;;;;;;4964679;28;20456;-86
2022/09/12 12:37:28;;;;;;;0.63;0.40;;;9.90;99.90;;;;;;4964811;28;20774;-86
2022/09/12 12:40:16;;;;;;;0.68;0.32;;;9.90;99.90;;;;;;4948763;28;20439;-87
2022/09/12 12:42:44;;;;;;;0.32;0.30;;;9.90;99.90;;;;;;4965273;28;20779;-86
2022/09/12 12:45:28;;;;;;;0.80;0.30;;;9.90;99.90;;;;;;4961446;28;20553;-87
2022/09/12 12:48:08;;;;;;;0.68;0.40;;;9.90;99.90;;;;;;4976694;28;20416;-86
2022/09/12 12:50:36;;;;;;;0.57;0.30;;;9.90;99.90;;;;;;4962660;28;20396;-87
2022/09/12 12:53:07;;;;;;;0.60;0.30;;;10.00;99.90;;;;;;4962239;28;20414;-87
2022/09/12 12:55:44;;;;;;;1.88;0.40;;;10.00;99.90;;;;;;4969395;28;20794;-87
2022/09/12 12:58:18;;;;;;;0.55;0.40;;;9.90;99.90;;;;;;4972673;28;20447;-86
2022/09/12 13:00:46;;;;;;;0.50;0.30;;;9.90;99.90;;;;;;4973128;28;20444;-86
2022/09/12 13:03:32;;;;;;;1.40;0.30;;;9.90;99.90;;;;;;4970389;28;20431;-87
2022/09/12 13:06:07;;;;;;;1.02;0.30;;;9.80;99.90;;;;;;4965219;28;20388;-86
2022/09/12 13:08:40;;;;;;;0.98;0.30;;;9.90;99.90;;;;;;4965615;28;20403;-85
2022/09/12 13:11:10;;;;;;;1.10;0.47;;;9.90;99.90;;;;;;4970092;28;20499;-87
2022/09/12 13:13:48;;;;;;;0.75;0.40;;;9.90;99.90;;;;;;4966113;28;20411;-86
2022/09/12 13:16:52;;;;;;;0.50;0.40;;;9.90;99.90;;;;;;4966298;28;20410;-87
2022/09/12 13:19:32;;;;;;;0.50;0.40;;;9.90;99.90;;;;;;4963752;28;20449;-86
2022/09/12 13:22:05;;;;;;;0.63;0.45;;;9.90;99.90;;;;;;4959524;28;20448;-86
2022/09/12 13:24:41;;;;;;;1.60;0.52;;;9.90;99.90;;;;;;4953316;28;20420;-87
2022/09/12 13:27:18;;;;;;;1.05;0.45;;;10.00;99.90;;;;;;4971396;28;20507;-87
2022/09/12 13:29:46;;;;;;;1.33;0.60;;;10.00;99.90;;;;;;4954556;28;20437;-87
2022/09/12 13:32:15;;;;;;;0.93;0.60;;;9.90;99.90;;;;;;4973000;28;20460;-87
2022/09/12 13:34:57;;;;;;;1.35;0.60;;;9.90;99.90;;;;;;4962506;28;20431;-87
2022/09/12 13:37:44;;;;;;;1.00;0.65;;;9.90;99.90;;;;;;4975908;28;20424;-86
2022/09/12 13:40:30;;;;;;;13.65;12.45;;;10.00;99.90;;;;;;4960684;28;20412;-87
2022/09/12 13:43:16;;;;;;;4.00;2.85;;;10.00;99.90;;;;;;4962965;28;20415;-86
2022/09/12 13:45:45;;;;;;;3.97;3.67;;;10.00;99.90;;;;;;4958629;28;20416;-86